MET'MAP v2.0
soon released !

Expected late october,
this new version will be
more efficient, smarter,
and hosted on a brand new
server x3 powerfull...
...and still free !


Not compatible ?
Try the mobile version !

LOG IN : | Subscribe | Disclaimer | Who is Orbifly ? |
ICAO code :

TAF - EGXE RAF Leeming - 24 Feb 2020 13:18 UTC - Data Source NOAA   


- Airport Elevation : 132 ft
- No reported NOTAMs.


EGXE - RAF Leeming

Latest METAR recorded : 2015/08/11 07:50 EGXE 110750Z 25003KT 9999 FEW018 15/11 Q1019 BLU NOSIG
TAF TAF EGXE
Valid from the 24 at 12:00 until the 24 at 19:00 UTC


241058Z 2412/2419 20010KT 6000 -RA OVC006
BECMG 2412/2414 24020G32KT 9999 NSW FEW020
TEMPO 2412/2413 3000 -RADZ BKN002
PROB30
TEMPO 2414/2419 25030G43KT SCT018

Source NOAA


MET'MAP, your aeronautical weather chart ! - Copyright ORBIFLY December 2007

Programming & Development : Alexandra Zaïnal
Co-Developer : Marc-Olivier Méhu
Technical & hardware support : Manuel Goepfert
Concept & Financing : Baudouin d'Aumeries